sensor_id;sensor_type;location;lat;lon;timestamp;P1;durP1;ratioP1;P2;durP2;ratioP2
4448;SDS011;2237;51.870;6.160;2024-03-02T00:00:30;1.77;;;0.65;;
4448;SDS011;2237;51.870;6.160;2024-03-02T00:02:56;1.17;;;0.70;;
4448;SDS011;2237;51.870;6.160;2024-03-02T00:05:23;2.35;;;0.73;;
4448;SDS011;2237;51.870;6.160;2024-03-02T00:07:53;1.23;;;0.65;;
4448;SDS011;2237;51.870;6.160;2024-03-02T00:10:22;1.75;;;0.77;;
4448;SDS011;2237;51.870;6.160;2024-03-02T00:12:55;1.42;;;0.52;;
4448;SDS011;2237;51.870;6.160;2024-03-02T00:18:17;2.42;;;0.90;;
4448;SDS011;2237;51.870;6.160;2024-03-02T00:20:45;1.42;;;0.70;;
4448;SDS011;2237;51.870;6.160;2024-03-02T00:23:14;2.35;;;0.75;;
4448;SDS011;2237;51.870;6.160;2024-03-02T00:26:00;0.80;;;0.55;;
4448;SDS011;2237;51.870;6.160;2024-03-02T00:28:27;1.95;;;0.30;;
4448;SDS011;2237;51.870;6.160;2024-03-02T00:33:26;2.92;;;0.80;;
4448;SDS011;2237;51.870;6.160;2024-03-02T00:35:56;2.03;;;0.70;;
4448;SDS011;2237;51.870;6.160;2024-03-02T00:38:22;1.77;;;0.73;;
4448;SDS011;2237;51.870;6.160;2024-03-02T00:40:49;1.45;;;0.50;;
4448;SDS011;2237;51.870;6.160;2024-03-02T00:46:11;1.00;;;0.52;;
4448;SDS011;2237;51.870;6.160;2024-03-02T00:48:39;1.20;;;0.52;;
4448;SDS011;2237;51.870;6.160;2024-03-02T00:51:14;4.35;;;1.13;;
4448;SDS011;2237;51.870;6.160;2024-03-02T00:53:41;2.70;;;0.65;;
4448;SDS011;2237;51.870;6.160;2024-03-02T00:56:11;4.25;;;0.90;;
4448;SDS011;2237;51.870;6.160;2024-03-02T00:58:38;1.25;;;0.40;;
4448;SDS011;2237;51.870;6.160;2024-03-02T01:01:05;1.20;;;0.40;;
4448;SDS011;2237;51.870;6.160;2024-03-02T01:03:33;0.73;;;0.28;;
4448;SDS011;2237;51.870;6.160;2024-03-02T01:06:00;4.28;;;0.70;;
4448;SDS011;2237;51.870;6.160;2024-03-02T01:08:27;1.90;;;0.90;;
4448;SDS011;2237;51.870;6.160;2024-03-02T01:10:53;1.35;;;0.70;;
4448;SDS011;2237;51.870;6.160;2024-03-02T01:13:21;1.27;;;0.47;;
4448;SDS011;2237;51.870;6.160;2024-03-02T01:15:49;1.38;;;0.75;;
4448;SDS011;2237;51.870;6.160;2024-03-02T01:18:16;1.50;;;0.57;;
4448;SDS011;2237;51.870;6.160;2024-03-02T01:20:42;1.30;;;0.50;;
4448;SDS011;2237;51.870;6.160;2024-03-02T01:23:09;2.08;;;0.73;;
4448;SDS011;2237;51.870;6.160;2024-03-02T01:25:36;2.38;;;0.65;;
4448;SDS011;2237;51.870;6.160;2024-03-02T01:28:02;2.03;;;0.70;;
4448;SDS011;2237;51.870;6.160;2024-03-02T01:30:30;0.70;;;0.40;;
4448;SDS011;2237;51.870;6.160;2024-03-02T01:32:57;2.30;;;0.60;;
4448;SDS011;2237;51.870;6.160;2024-03-02T01:35:25;2.47;;;0.90;;
4448;SDS011;2237;51.870;6.160;2024-03-02T01:37:52;2.92;;;0.90;;
4448;SDS011;2237;51.870;6.160;2024-03-02T01:40:19;3.53;;;0.77;;
4448;SDS011;2237;51.870;6.160;2024-03-02T01:42:46;1.60;;;0.60;;
4448;SDS011;2237;51.870;6.160;2024-03-02T01:45:13;3.50;;;1.00;;
4448;SDS011;2237;51.870;6.160;2024-03-02T01:47:39;0.93;;;0.60;;
4448;SDS011;2237;51.870;6.160;2024-03-02T01:50:06;1.73;;;0.70;;
4448;SDS011;2237;51.870;6.160;2024-03-02T01:52:33;1.73;;;0.57;;
4448;SDS011;2237;51.870;6.160;2024-03-02T01:54:59;2.00;;;0.50;;
4448;SDS011;2237;51.870;6.160;2024-03-02T01:57:26;1.10;;;0.38;;
4448;SDS011;2237;51.870;6.160;2024-03-02T01:59:53;2.80;;;0.50;;
4448;SDS011;2237;51.870;6.160;2024-03-02T02:02:19;1.60;;;0.65;;
4448;SDS011;2237;51.870;6.160;2024-03-02T02:04:46;1.48;;;0.50;;
4448;SDS011;2237;51.870;6.160;2024-03-02T02:07:12;0.73;;;0.30;;
4448;SDS011;2237;51.870;6.160;2024-03-02T02:09:43;1.90;;;0.50;;
4448;SDS011;2237;51.870;6.160;2024-03-02T02:12:10;1.73;;;0.50;;
4448;SDS011;2237;51.870;6.160;2024-03-02T02:14:36;3.97;;;0.45;;
4448;SDS011;2237;51.870;6.160;2024-03-02T02:17:03;1.48;;;0.50;;
4448;SDS011;2237;51.870;6.160;2024-03-02T02:19:29;1.88;;;0.57;;
4448;SDS011;2237;51.870;6.160;2024-03-02T02:21:56;2.83;;;0.60;;
4448;SDS011;2237;51.870;6.160;2024-03-02T02:24:22;1.30;;;0.60;;
4448;SDS011;2237;51.870;6.160;2024-03-02T02:26:49;0.90;;;0.30;;
4448;SDS011;2237;51.870;6.160;2024-03-02T02:29:15;2.22;;;0.50;;
4448;SDS011;2237;51.870;6.160;2024-03-02T02:31:42;0.50;;;0.38;;
4448;SDS011;2237;51.870;6.160;2024-03-02T02:34:08;1.05;;;0.32;;
4448;SDS011;2237;51.870;6.160;2024-03-02T02:36:36;0.40;;;0.20;;
4448;SDS011;2237;51.870;6.160;2024-03-02T02:39:04;0.30;;;0.10;;
4448;SDS011;2237;51.870;6.160;2024-03-02T02:41:33;0.90;;;0.30;;
4448;SDS011;2237;51.870;6.160;2024-03-02T02:44:00;0.10;;;0.10;;
4448;SDS011;2237;51.870;6.160;2024-03-02T02:46:26;0.50;;;0.10;;
4448;SDS011;2237;51.870;6.160;2024-03-02T02:48:53;0.38;;;0.10;;
4448;SDS011;2237;51.870;6.160;2024-03-02T02:51:20;0.77;;;0.10;;
4448;SDS011;2237;51.870;6.160;2024-03-02T02:53:46;1.45;;;0.30;;
4448;SDS011;2237;51.870;6.160;2024-03-02T02:56:13;0.47;;;0.20;;
4448;SDS011;2237;51.870;6.160;2024-03-02T02:58:40;2.10;;;0.20;;
4448;SDS011;2237;51.870;6.160;2024-03-02T03:01:07;1.48;;;0.10;;
4448;SDS011;2237;51.870;6.160;2024-03-02T03:03:34;1.27;;;0.00;;
4448;SDS011;2237;51.870;6.160;2024-03-02T03:06:01;0.10;;;0.10;;
4448;SDS011;2237;51.870;6.160;2024-03-02T03:08:28;0.28;;;0.10;;
4448;SDS011;2237;51.870;6.160;2024-03-02T03:10:55;0.10;;;0.05;;
4448;SDS011;2237;51.870;6.160;2024-03-02T03:13:21;0.50;;;0.10;;
4448;SDS011;2237;51.870;6.160;2024-03-02T03:15:48;0.30;;;0.10;;
4448;SDS011;2237;51.870;6.160;2024-03-02T03:18:14;1.27;;;0.20;;
4448;SDS011;2237;51.870;6.160;2024-03-02T03:20:41;0.77;;;0.10;;
4448;SDS011;2237;51.870;6.160;2024-03-02T03:23:07;0.60;;;0.10;;
4448;SDS011;2237;51.870;6.160;2024-03-02T03:25:34;0.32;;;0.10;;
4448;SDS011;2237;51.870;6.160;2024-03-02T03:28:01;1.10;;;0.20;;
4448;SDS011;2237;51.870;6.160;2024-03-02T03:30:28;0.32;;;0.03;;
4448;SDS011;2237;51.870;6.160;2024-03-02T03:32:54;0.10;;;0.00;;
4448;SDS011;2237;51.870;6.160;2024-03-02T03:35:21;0.40;;;0.10;;
4448;SDS011;2237;51.870;6.160;2024-03-02T03:37:47;0.40;;;0.10;;
4448;SDS011;2237;51.870;6.160;2024-03-02T03:40:13;0.50;;;0.20;;
4448;SDS011;2237;51.870;6.160;2024-03-02T03:42:40;0.63;;;0.00;;
4448;SDS011;2237;51.870;6.160;2024-03-02T03:45:07;0.75;;;0.22;;
4448;SDS011;2237;51.870;6.160;2024-03-02T03:47:34;0.50;;;0.30;;
4448;SDS011;2237;51.870;6.160;2024-03-02T03:50:00;0.95;;;0.43;;
4448;SDS011;2237;51.870;6.160;2024-03-02T03:52:27;0.43;;;0.30;;
4448;SDS011;2237;51.870;6.160;2024-03-02T03:54:53;0.70;;;0.30;;
4448;SDS011;2237;51.870;6.160;2024-03-02T03:57:20;0.10;;;0.10;;
4448;SDS011;2237;51.870;6.160;2024-03-02T03:59:47;0.08;;;0.00;;
4448;SDS011;2237;51.870;6.160;2024-03-02T04:02:13;0.08;;;0.00;;
4448;SDS011;2237;51.870;6.160;2024-03-02T04:04:39;0.28;;;0.10;;
4448;SDS011;2237;51.870;6.160;2024-03-02T04:07:06;0.35;;;0.10;;
4448;SDS011;2237;51.870;6.160;2024-03-02T04:09:32;1.80;;;0.10;;
4448;SDS011;2237;51.870;6.160;2024-03-02T04:11:59;0.75;;;0.10;;
4448;SDS011;2237;51.870;6.160;2024-03-02T04:14:25;0.00;;;0.00;;
4448;SDS011;2237;51.870;6.160;2024-03-02T04:16:52;0.00;;;0.00;;
4448;SDS011;2237;51.870;6.160;2024-03-02T04:19:18;0.00;;;0.00;;
4448;SDS011;2237;51.870;6.160;2024-03-02T04:21:45;0.85;;;0.10;;
4448;SDS011;2237;51.870;6.160;2024-03-02T04:24:12;1.88;;;0.20;;
4448;SDS011;2237;51.870;6.160;2024-03-02T04:26:38;0.70;;;0.10;;
4448;SDS011;2237;51.870;6.160;2024-03-02T04:29:04;1.75;;;0.10;;
4448;SDS011;2237;51.870;6.160;2024-03-02T04:31:34;0.28;;;0.10;;
4448;SDS011;2237;51.870;6.160;2024-03-02T04:34:00;1.10;;;0.30;;
4448;SDS011;2237;51.870;6.160;2024-03-02T04:36:27;0.55;;;0.20;;
4448;SDS011;2237;51.870;6.160;2024-03-02T04:38:53;0.68;;;0.30;;
4448;SDS011;2237;51.870;6.160;2024-03-02T04:41:19;1.83;;;0.30;;
4448;SDS011;2237;51.870;6.160;2024-03-02T04:43:46;0.55;;;0.25;;
4448;SDS011;2237;51.870;6.160;2024-03-02T04:46:12;1.20;;;0.20;;
4448;SDS011;2237;51.870;6.160;2024-03-02T04:48:39;0.88;;;0.35;;
4448;SDS011;2237;51.870;6.160;2024-03-02T04:51:05;1.50;;;0.57;;
4448;SDS011;2237;51.870;6.160;2024-03-02T04:53:32;2.15;;;0.85;;
4448;SDS011;2237;51.870;6.160;2024-03-02T04:55:58;1.23;;;0.50;;
4448;SDS011;2237;51.870;6.160;2024-03-02T04:58:43;2.15;;;0.30;;
4448;SDS011;2237;51.870;6.160;2024-03-02T05:01:09;0.98;;;0.25;;
4448;SDS011;2237;51.870;6.160;2024-03-02T05:03:37;1.65;;;0.40;;
4448;SDS011;2237;51.870;6.160;2024-03-02T05:06:03;0.47;;;0.35;;
4448;SDS011;2237;51.870;6.160;2024-03-02T05:08:30;0.85;;;0.30;;
4448;SDS011;2237;51.870;6.160;2024-03-02T05:10:56;0.28;;;0.20;;
4448;SDS011;2237;51.870;6.160;2024-03-02T05:13:43;0.40;;;0.20;;
4448;SDS011;2237;51.870;6.160;2024-03-02T05:16:09;0.43;;;0.20;;
4448;SDS011;2237;51.870;6.160;2024-03-02T05:18:37;0.90;;;0.40;;
4448;SDS011;2237;51.870;6.160;2024-03-02T05:21:03;0.70;;;0.40;;
4448;SDS011;2237;51.870;6.160;2024-03-02T05:23:30;0.43;;;0.20;;
4448;SDS011;2237;51.870;6.160;2024-03-02T05:25:57;0.70;;;0.40;;
4448;SDS011;2237;51.870;6.160;2024-03-02T05:28:23;2.05;;;0.20;;
4448;SDS011;2237;51.870;6.160;2024-03-02T05:30:49;0.93;;;0.28;;
4448;SDS011;2237;51.870;6.160;2024-03-02T05:33:16;0.75;;;0.22;;
4448;SDS011;2237;51.870;6.160;2024-03-02T05:35:43;1.48;;;0.40;;
4448;SDS011;2237;51.870;6.160;2024-03-02T05:38:10;0.88;;;0.45;;
4448;SDS011;2237;51.870;6.160;2024-03-02T05:40:36;0.52;;;0.20;;
4448;SDS011;2237;51.870;6.160;2024-03-02T05:43:03;1.10;;;0.32;;
4448;SDS011;2237;51.870;6.160;2024-03-02T05:45:30;0.60;;;0.10;;
4448;SDS011;2237;51.870;6.160;2024-03-02T05:47:56;1.63;;;0.15;;
4448;SDS011;2237;51.870;6.160;2024-03-02T05:50:23;2.05;;;0.10;;
4448;SDS011;2237;51.870;6.160;2024-03-02T05:52:49;0.30;;;0.10;;
4448;SDS011;2237;51.870;6.160;2024-03-02T05:55:16;0.13;;;0.10;;
4448;SDS011;2237;51.870;6.160;2024-03-02T05:57:42;0.60;;;0.10;;
4448;SDS011;2237;51.870;6.160;2024-03-02T06:00:24;1.95;;;0.20;;
4448;SDS011;2237;51.870;6.160;2024-03-02T06:02:51;2.00;;;0.10;;
4448;SDS011;2237;51.870;6.160;2024-03-02T06:05:17;0.10;;;0.00;;
4448;SDS011;2237;51.870;6.160;2024-03-02T06:07:45;0.75;;;0.25;;
4448;SDS011;2237;51.870;6.160;2024-03-02T06:10:11;2.50;;;0.28;;
4448;SDS011;2237;51.870;6.160;2024-03-02T06:12:40;0.30;;;0.20;;
4448;SDS011;2237;51.870;6.160;2024-03-02T06:15:06;3.85;;;0.30;;
4448;SDS011;2237;51.870;6.160;2024-03-02T06:17:34;1.30;;;0.08;;
4448;SDS011;2237;51.870;6.160;2024-03-02T06:20:01;1.67;;;0.28;;
4448;SDS011;2237;51.870;6.160;2024-03-02T06:22:28;0.40;;;0.10;;
4448;SDS011;2237;51.870;6.160;2024-03-02T06:24:55;0.30;;;0.10;;
4448;SDS011;2237;51.870;6.160;2024-03-02T06:27:22;0.52;;;0.10;;
4448;SDS011;2237;51.870;6.160;2024-03-02T06:29:48;0.28;;;0.10;;
4448;SDS011;2237;51.870;6.160;2024-03-02T06:32:15;1.10;;;0.20;;
4448;SDS011;2237;51.870;6.160;2024-03-02T06:34:42;0.47;;;0.30;;
4448;SDS011;2237;51.870;6.160;2024-03-02T06:37:08;1.48;;;0.17;;
4448;SDS011;2237;51.870;6.160;2024-03-02T06:39:34;0.40;;;0.17;;
4448;SDS011;2237;51.870;6.160;2024-03-02T06:42:02;0.20;;;0.17;;
4448;SDS011;2237;51.870;6.160;2024-03-02T06:44:29;0.32;;;0.10;;
4448;SDS011;2237;51.870;6.160;2024-03-02T06:46:55;0.50;;;0.20;;
4448;SDS011;2237;51.870;6.160;2024-03-02T06:49:22;0.82;;;0.20;;
4448;SDS011;2237;51.870;6.160;2024-03-02T06:51:48;0.52;;;0.20;;
4448;SDS011;2237;51.870;6.160;2024-03-02T06:54:16;0.05;;;0.05;;
4448;SDS011;2237;51.870;6.160;2024-03-02T06:56:42;1.20;;;0.20;;
4448;SDS011;2237;51.870;6.160;2024-03-02T06:59:09;0.88;;;0.17;;
4448;SDS011;2237;51.870;6.160;2024-03-02T07:01:35;0.28;;;0.10;;
4448;SDS011;2237;51.870;6.160;2024-03-02T07:04:02;0.90;;;0.25;;
4448;SDS011;2237;51.870;6.160;2024-03-02T07:06:28;2.17;;;0.25;;
4448;SDS011;2237;51.870;6.160;2024-03-02T07:08:55;1.10;;;0.40;;
4448;SDS011;2237;51.870;6.160;2024-03-02T07:11:21;0.73;;;0.20;;
4448;SDS011;2237;51.870;6.160;2024-03-02T07:13:48;2.50;;;0.28;;
4448;SDS011;2237;51.870;6.160;2024-03-02T07:16:14;1.35;;;0.30;;
4448;SDS011;2237;51.870;6.160;2024-03-02T07:19:00;4.57;;;0.32;;
4448;SDS011;2237;51.870;6.160;2024-03-02T07:21:28;0.75;;;0.28;;
4448;SDS011;2237;51.870;6.160;2024-03-02T07:23:54;2.72;;;0.30;;
4448;SDS011;2237;51.870;6.160;2024-03-02T07:26:20;1.70;;;0.30;;
4448;SDS011;2237;51.870;6.160;2024-03-02T07:28:51;1.57;;;0.33;;
4448;SDS011;2237;51.870;6.160;2024-03-02T07:31:18;2.05;;;0.45;;
4448;SDS011;2237;51.870;6.160;2024-03-02T07:33:44;2.15;;;0.40;;
4448;SDS011;2237;51.870;6.160;2024-03-02T07:36:12;1.08;;;0.20;;
4448;SDS011;2237;51.870;6.160;2024-03-02T07:38:39;2.58;;;0.40;;
4448;SDS011;2237;51.870;6.160;2024-03-02T07:41:07;1.45;;;0.40;;
4448;SDS011;2237;51.870;6.160;2024-03-02T07:43:34;1.85;;;0.50;;
4448;SDS011;2237;51.870;6.160;2024-03-02T07:46:01;0.95;;;0.22;;
4448;SDS011;2237;51.870;6.160;2024-03-02T07:48:29;3.60;;;0.32;;
4448;SDS011;2237;51.870;6.160;2024-03-02T07:50:56;1.63;;;0.75;;
4448;SDS011;2237;51.870;6.160;2024-03-02T07:53:23;0.70;;;0.40;;
4448;SDS011;2237;51.870;6.160;2024-03-02T07:55:49;0.73;;;0.30;;
4448;SDS011;2237;51.870;6.160;2024-03-02T07:58:16;1.95;;;0.50;;
4448;SDS011;2237;51.870;6.160;2024-03-02T08:00:44;1.15;;;0.57;;
4448;SDS011;2237;51.870;6.160;2024-03-02T08:03:11;0.60;;;0.28;;
4448;SDS011;2237;51.870;6.160;2024-03-02T08:05:38;1.23;;;0.35;;
4448;SDS011;2237;51.870;6.160;2024-03-02T08:08:05;2.95;;;0.40;;
4448;SDS011;2237;51.870;6.160;2024-03-02T08:10:31;1.90;;;0.40;;
4448;SDS011;2237;51.870;6.160;2024-03-02T08:12:59;1.15;;;0.40;;
4448;SDS011;2237;51.870;6.160;2024-03-02T08:15:26;3.20;;;0.32;;
4448;SDS011;2237;51.870;6.160;2024-03-02T08:17:52;2.03;;;0.60;;
4448;SDS011;2237;51.870;6.160;2024-03-02T08:20:19;0.90;;;0.30;;
4448;SDS011;2237;51.870;6.160;2024-03-02T08:22:46;10.48;;;0.85;;
4448;SDS011;2237;51.870;6.160;2024-03-02T08:25:13;1.70;;;0.32;;
4448;SDS011;2237;51.870;6.160;2024-03-02T08:27:40;1.33;;;0.57;;
4448;SDS011;2237;51.870;6.160;2024-03-02T08:30:06;0.70;;;0.30;;
4448;SDS011;2237;51.870;6.160;2024-03-02T08:32:34;4.97;;;0.65;;
4448;SDS011;2237;51.870;6.160;2024-03-02T08:35:01;2.55;;;0.60;;
4448;SDS011;2237;51.870;6.160;2024-03-02T08:37:27;2.38;;;0.60;;
4448;SDS011;2237;51.870;6.160;2024-03-02T08:39:54;2.38;;;0.60;;
4448;SDS011;2237;51.870;6.160;2024-03-02T08:42:21;1.02;;;0.38;;
4448;SDS011;2237;51.870;6.160;2024-03-02T08:44:48;1.35;;;0.47;;
4448;SDS011;2237;51.870;6.160;2024-03-02T08:47:15;2.00;;;0.47;;
4448;SDS011;2237;51.870;6.160;2024-03-02T08:49:41;1.95;;;0.30;;
4448;SDS011;2237;51.870;6.160;2024-03-02T08:52:09;1.85;;;0.30;;
4448;SDS011;2237;51.870;6.160;2024-03-02T08:54:36;2.38;;;0.20;;
4448;SDS011;2237;51.870;6.160;2024-03-02T08:57:02;1.58;;;0.25;;
4448;SDS011;2237;51.870;6.160;2024-03-02T08:59:29;2.80;;;0.40;;
4448;SDS011;2237;51.870;6.160;2024-03-02T09:01:55;0.65;;;0.20;;
4448;SDS011;2237;51.870;6.160;2024-03-02T09:04:22;3.03;;;0.20;;
4448;SDS011;2237;51.870;6.160;2024-03-02T09:06:53;6.30;;;0.50;;
4448;SDS011;2237;51.870;6.160;2024-03-02T09:09:19;1.35;;;0.13;;
4448;SDS011;2237;51.870;6.160;2024-03-02T09:11:46;1.08;;;0.20;;
4448;SDS011;2237;51.870;6.160;2024-03-02T09:14:13;4.70;;;0.50;;
4448;SDS011;2237;51.870;6.160;2024-03-02T09:16:41;2.40;;;0.70;;
4448;SDS011;2237;51.870;6.160;2024-03-02T09:19:08;1.92;;;0.57;;
4448;SDS011;2237;51.870;6.160;2024-03-02T09:21:35;1.13;;;0.22;;
4448;SDS011;2237;51.870;6.160;2024-03-02T09:24:02;1.85;;;0.55;;
4448;SDS011;2237;51.870;6.160;2024-03-02T09:26:29;1.70;;;0.40;;
4448;SDS011;2237;51.870;6.160;2024-03-02T09:28:56;1.35;;;0.10;;
4448;SDS011;2237;51.870;6.160;2024-03-02T09:31:22;2.45;;;0.35;;
4448;SDS011;2237;51.870;6.160;2024-03-02T09:33:49;0.10;;;0.10;;
4448;SDS011;2237;51.870;6.160;2024-03-02T09:36:19;1.90;;;0.40;;
4448;SDS011;2237;51.870;6.160;2024-03-02T09:38:46;1.35;;;0.20;;
4448;SDS011;2237;51.870;6.160;2024-03-02T09:41:14;2.45;;;0.20;;
4448;SDS011;2237;51.870;6.160;2024-03-02T09:43:41;1.70;;;0.32;;
4448;SDS011;2237;51.870;6.160;2024-03-02T09:46:10;1.20;;;0.30;;
4448;SDS011;2237;51.870;6.160;2024-03-02T09:48:37;0.88;;;0.22;;
4448;SDS011;2237;51.870;6.160;2024-03-02T09:51:04;0.85;;;0.20;;
4448;SDS011;2237;51.870;6.160;2024-03-02T09:53:31;1.42;;;0.65;;
4448;SDS011;2237;51.870;6.160;2024-03-02T09:55:59;0.38;;;0.20;;
4448;SDS011;2237;51.870;6.160;2024-03-02T09:58:26;0.57;;;0.20;;
4448;SDS011;2237;51.870;6.160;2024-03-02T10:00:53;1.58;;;0.17;;
4448;SDS011;2237;51.870;6.160;2024-03-02T10:03:20;1.85;;;0.20;;
4448;SDS011;2237;51.870;6.160;2024-03-02T10:05:48;0.22;;;0.17;;
4448;SDS011;2237;51.870;6.160;2024-03-02T10:08:15;3.53;;;0.50;;
4448;SDS011;2237;51.870;6.160;2024-03-02T10:10:41;1.95;;;0.25;;
4448;SDS011;2237;51.870;6.160;2024-03-02T10:13:10;1.75;;;0.40;;
4448;SDS011;2237;51.870;6.160;2024-03-02T10:15:38;1.85;;;0.40;;
4448;SDS011;2237;51.870;6.160;2024-03-02T10:18:09;0.75;;;0.20;;
4448;SDS011;2237;51.870;6.160;2024-03-02T10:23:13;2.63;;;0.20;;
4448;SDS011;2237;51.870;6.160;2024-03-02T10:25:41;0.82;;;0.20;;
4448;SDS011;2237;51.870;6.160;2024-03-02T10:28:22;1.63;;;0.50;;
4448;SDS011;2237;51.870;6.160;2024-03-02T10:30:49;1.48;;;0.30;;
4448;SDS011;2237;51.870;6.160;2024-03-02T10:33:17;2.22;;;0.38;;
4448;SDS011;2237;51.870;6.160;2024-03-02T10:35:44;2.53;;;0.20;;
4448;SDS011;2237;51.870;6.160;2024-03-02T10:38:10;0.63;;;0.20;;
4448;SDS011;2237;51.870;6.160;2024-03-02T10:40:37;1.80;;;0.40;;
4448;SDS011;2237;51.870;6.160;2024-03-02T10:43:04;3.92;;;0.52;;
4448;SDS011;2237;51.870;6.160;2024-03-02T10:45:32;6.93;;;0.40;;
4448;SDS011;2237;51.870;6.160;2024-03-02T10:47:59;2.95;;;0.20;;
4448;SDS011;2237;51.870;6.160;2024-03-02T10:50:28;3.72;;;0.40;;
4448;SDS011;2237;51.870;6.160;2024-03-02T10:52:56;1.38;;;0.20;;
4448;SDS011;2237;51.870;6.160;2024-03-02T10:55:22;1.27;;;0.30;;
4448;SDS011;2237;51.870;6.160;2024-03-02T10:57:53;1.45;;;0.28;;
4448;SDS011;2237;51.870;6.160;2024-03-02T11:00:24;0.60;;;0.20;;
4448;SDS011;2237;51.870;6.160;2024-03-02T11:02:56;2.60;;;0.80;;
4448;SDS011;2237;51.870;6.160;2024-03-02T11:05:33;1.27;;;0.22;;
4448;SDS011;2237;51.870;6.160;2024-03-02T11:08:06;1.85;;;0.85;;
4448;SDS011;2237;51.870;6.160;2024-03-02T11:13:14;0.65;;;0.17;;
4448;SDS011;2237;51.870;6.160;2024-03-02T11:15:41;2.28;;;0.60;;
4448;SDS011;2237;51.870;6.160;2024-03-02T11:18:10;1.45;;;0.50;;
4448;SDS011;2237;51.870;6.160;2024-03-02T11:20:38;3.10;;;0.60;;
4448;SDS011;2237;51.870;6.160;2024-03-02T11:23:06;2.30;;;0.50;;
4448;SDS011;2237;51.870;6.160;2024-03-02T11:25:34;1.83;;;0.45;;
4448;SDS011;2237;51.870;6.160;2024-03-02T11:28:07;0.88;;;0.45;;
4448;SDS011;2237;51.870;6.160;2024-03-02T11:33:05;1.65;;;0.30;;
4448;SDS011;2237;51.870;6.160;2024-03-02T11:35:41;1.20;;;0.30;;
4448;SDS011;2237;51.870;6.160;2024-03-02T11:38:12;1.00;;;0.30;;
4448;SDS011;2237;51.870;6.160;2024-03-02T11:40:39;2.58;;;0.45;;
4448;SDS011;2237;51.870;6.160;2024-03-02T11:43:06;1.92;;;0.40;;
4448;SDS011;2237;51.870;6.160;2024-03-02T11:45:37;4.03;;;0.30;;
4448;SDS011;2237;51.870;6.160;2024-03-02T11:48:10;1.75;;;0.10;;
4448;SDS011;2237;51.870;6.160;2024-03-02T11:50:46;3.90;;;0.40;;
4448;SDS011;2237;51.870;6.160;2024-03-02T11:53:13;3.13;;;0.40;;
4448;SDS011;2237;51.870;6.160;2024-03-02T11:55:40;2.70;;;0.40;;
4448;SDS011;2237;51.870;6.160;2024-03-02T11:58:07;2.05;;;0.30;;
4448;SDS011;2237;51.870;6.160;2024-03-02T12:00:34;0.95;;;0.45;;
4448;SDS011;2237;51.870;6.160;2024-03-02T12:03:02;2.40;;;0.60;;
4448;SDS011;2237;51.870;6.160;2024-03-02T12:05:30;1.83;;;0.38;;
4448;SDS011;2237;51.870;6.160;2024-03-02T12:07:58;2.97;;;0.35;;
4448;SDS011;2237;51.870;6.160;2024-03-02T12:10:26;3.95;;;0.52;;
4448;SDS011;2237;51.870;6.160;2024-03-02T12:12:56;0.88;;;0.30;;
4448;SDS011;2237;51.870;6.160;2024-03-02T12:15:27;1.00;;;0.32;;
4448;SDS011;2237;51.870;6.160;2024-03-02T12:17:55;1.80;;;0.55;;
4448;SDS011;2237;51.870;6.160;2024-03-02T12:20:23;0.45;;;0.40;;
4448;SDS011;2237;51.870;6.160;2024-03-02T12:22:51;3.67;;;0.65;;
4448;SDS011;2237;51.870;6.160;2024-03-02T12:25:22;1.05;;;0.40;;
4448;SDS011;2237;51.870;6.160;2024-03-02T12:27:50;0.73;;;0.43;;
4448;SDS011;2237;51.870;6.160;2024-03-02T12:30:17;2.03;;;0.47;;
4448;SDS011;2237;51.870;6.160;2024-03-02T12:32:44;1.05;;;0.40;;
4448;SDS011;2237;51.870;6.160;2024-03-02T12:35:11;1.98;;;0.50;;
4448;SDS011;2237;51.870;6.160;2024-03-02T12:37:47;1.23;;;0.57;;
4448;SDS011;2237;51.870;6.160;2024-03-02T12:40:15;2.08;;;0.57;;
4448;SDS011;2237;51.870;6.160;2024-03-02T12:42:46;2.00;;;0.50;;
4448;SDS011;2237;51.870;6.160;2024-03-02T12:45:14;1.90;;;0.57;;
4448;SDS011;2237;51.870;6.160;2024-03-02T12:47:42;4.43;;;0.70;;
4448;SDS011;2237;51.870;6.160;2024-03-02T12:50:09;3.90;;;0.50;;
4448;SDS011;2237;51.870;6.160;2024-03-02T12:52:36;1.83;;;0.35;;
4448;SDS011;2237;51.870;6.160;2024-03-02T12:55:05;2.25;;;0.57;;
4448;SDS011;2237;51.870;6.160;2024-03-02T12:57:33;3.60;;;0.40;;
4448;SDS011;2237;51.870;6.160;2024-03-02T13:00:04;2.58;;;0.40;;
4448;SDS011;2237;51.870;6.160;2024-03-02T13:02:35;3.03;;;0.40;;
4448;SDS011;2237;51.870;6.160;2024-03-02T13:05:02;0.70;;;0.30;;
4448;SDS011;2237;51.870;6.160;2024-03-02T13:07:29;2.78;;;0.40;;
4448;SDS011;2237;51.870;6.160;2024-03-02T13:09:56;2.63;;;0.65;;
4448;SDS011;2237;51.870;6.160;2024-03-02T13:12:24;2.88;;;0.60;;
4448;SDS011;2237;51.870;6.160;2024-03-02T13:14:53;0.40;;;0.10;;
4448;SDS011;2237;51.870;6.160;2024-03-02T13:17:20;1.92;;;0.32;;
4448;SDS011;2237;51.870;6.160;2024-03-02T13:19:53;2.42;;;0.40;;
4448;SDS011;2237;51.870;6.160;2024-03-02T13:22:21;2.40;;;0.45;;
4448;SDS011;2237;51.870;6.160;2024-03-02T13:24:48;1.77;;;0.25;;
4448;SDS011;2237;51.870;6.160;2024-03-02T13:27:15;3.38;;;0.50;;
4448;SDS011;2237;51.870;6.160;2024-03-02T13:29:42;12.43;;;0.45;;
4448;SDS011;2237;51.870;6.160;2024-03-02T13:32:09;2.08;;;0.80;;
4448;SDS011;2237;51.870;6.160;2024-03-02T13:34:36;3.83;;;0.28;;
4448;SDS011;2237;51.870;6.160;2024-03-02T13:37:03;2.55;;;0.43;;
4448;SDS011;2237;51.870;6.160;2024-03-02T13:39:31;0.85;;;0.30;;
4448;SDS011;2237;51.870;6.160;2024-03-02T13:41:59;1.80;;;0.40;;
4448;SDS011;2237;51.870;6.160;2024-03-02T13:44:31;0.68;;;0.17;;
4448;SDS011;2237;51.870;6.160;2024-03-02T13:46:59;0.60;;;0.20;;
4448;SDS011;2237;51.870;6.160;2024-03-02T13:49:26;0.93;;;0.20;;
4448;SDS011;2237;51.870;6.160;2024-03-02T13:52:04;0.77;;;0.30;;
4448;SDS011;2237;51.870;6.160;2024-03-02T13:54:37;1.52;;;0.28;;
4448;SDS011;2237;51.870;6.160;2024-03-02T13:57:06;1.83;;;0.30;;
4448;SDS011;2237;51.870;6.160;2024-03-02T13:59:33;1.90;;;0.30;;
4448;SDS011;2237;51.870;6.160;2024-03-02T14:02:04;0.63;;;0.20;;
4448;SDS011;2237;51.870;6.160;2024-03-02T14:04:32;2.22;;;0.40;;
4448;SDS011;2237;51.870;6.160;2024-03-02T14:06:59;1.15;;;0.30;;
4448;SDS011;2237;51.870;6.160;2024-03-02T14:09:26;3.83;;;0.50;;
4448;SDS011;2237;51.870;6.160;2024-03-02T14:11:53;3.10;;;0.30;;
4448;SDS011;2237;51.870;6.160;2024-03-02T14:14:21;3.55;;;0.70;;
4448;SDS011;2237;51.870;6.160;2024-03-02T14:16:47;1.95;;;0.40;;
4448;SDS011;2237;51.870;6.160;2024-03-02T14:19:14;1.70;;;0.30;;
4448;SDS011;2237;51.870;6.160;2024-03-02T14:21:41;3.42;;;0.50;;
4448;SDS011;2237;51.870;6.160;2024-03-02T14:24:07;0.95;;;0.40;;
4448;SDS011;2237;51.870;6.160;2024-03-02T14:26:34;1.95;;;0.40;;
4448;SDS011;2237;51.870;6.160;2024-03-02T14:29:03;1.58;;;0.30;;
4448;SDS011;2237;51.870;6.160;2024-03-02T14:31:30;1.30;;;0.40;;
4448;SDS011;2237;51.870;6.160;2024-03-02T14:33:57;2.33;;;0.38;;
4448;SDS011;2237;51.870;6.160;2024-03-02T14:36:24;1.65;;;0.35;;
4448;SDS011;2237;51.870;6.160;2024-03-02T14:38:52;1.73;;;0.30;;
4448;SDS011;2237;51.870;6.160;2024-03-02T14:41:18;1.85;;;0.20;;
4448;SDS011;2237;51.870;6.160;2024-03-02T14:43:45;3.70;;;0.57;;
4448;SDS011;2237;51.870;6.160;2024-03-02T14:46:11;4.25;;;0.40;;
4448;SDS011;2237;51.870;6.160;2024-03-02T14:48:38;1.40;;;0.50;;
4448;SDS011;2237;51.870;6.160;2024-03-02T14:51:05;1.52;;;0.43;;
4448;SDS011;2237;51.870;6.160;2024-03-02T14:53:32;3.42;;;0.70;;
4448;SDS011;2237;51.870;6.160;2024-03-02T14:55:58;2.97;;;0.80;;
4448;SDS011;2237;51.870;6.160;2024-03-02T14:58:25;2.13;;;0.65;;
4448;SDS011;2237;51.870;6.160;2024-03-02T15:00:52;2.45;;;0.88;;
4448;SDS011;2237;51.870;6.160;2024-03-02T15:03:19;1.92;;;0.70;;
4448;SDS011;2237;51.870;6.160;2024-03-02T15:05:46;5.05;;;0.80;;
4448;SDS011;2237;51.870;6.160;2024-03-02T15:08:13;2.15;;;0.70;;
4448;SDS011;2237;51.870;6.160;2024-03-02T15:10:39;3.00;;;0.80;;
4448;SDS011;2237;51.870;6.160;2024-03-02T15:13:09;2.67;;;0.80;;
4448;SDS011;2237;51.870;6.160;2024-03-02T15:15:36;2.22;;;0.50;;
4448;SDS011;2237;51.870;6.160;2024-03-02T15:18:02;2.13;;;0.80;;
4448;SDS011;2237;51.870;6.160;2024-03-02T15:20:32;2.33;;;0.90;;
4448;SDS011;2237;51.870;6.160;2024-03-02T15:22:58;1.88;;;0.70;;
4448;SDS011;2237;51.870;6.160;2024-03-02T15:25:25;1.73;;;0.70;;
4448;SDS011;2237;51.870;6.160;2024-03-02T15:27:51;1.67;;;0.60;;
4448;SDS011;2237;51.870;6.160;2024-03-02T15:30:18;3.38;;;0.75;;
4448;SDS011;2237;51.870;6.160;2024-03-02T15:32:44;2.83;;;0.90;;